sensor_id;sensor_type;location;lat;lon;timestamp;noise_LAeq;noise_LA_min;noise_LA_max;noise_LA01;noise_LA95
61095;Laerm;20450;49.074;9.158;2023-08-24T00:01:25;38.65;35.04;42.59;;
61095;Laerm;20450;49.074;9.158;2023-08-24T00:03:53;38.82;35.04;42.82;;
61095;Laerm;20450;49.074;9.158;2023-08-24T00:06:20;39.03;35.66;44.07;;
61095;Laerm;20450;49.074;9.158;2023-08-24T00:08:48;38.96;35.66;43.24;;
61095;Laerm;20450;49.074;9.158;2023-08-24T00:11:15;38.69;35.66;41.68;;
61095;Laerm;20450;49.074;9.158;2023-08-24T00:13:43;38.51;34.31;41.89;;
61095;Laerm;20450;49.074;9.158;2023-08-24T00:16:10;38.78;34.69;42.88;;
61095;Laerm;20450;49.074;9.158;2023-08-24T00:18:37;38.39;34.69;41.06;;
61095;Laerm;20450;49.074;9.158;2023-08-24T00:21:04;38.91;35.36;44.03;;
61095;Laerm;20450;49.074;9.158;2023-08-24T00:23:31;38.76;35.04;43.09;;
61095;Laerm;20450;49.074;9.158;2023-08-24T00:25:59;38.38;35.36;41.46;;
61095;Laerm;20450;49.074;9.158;2023-08-24T00:28:26;38.93;34.31;42.35;;
61095;Laerm;20450;49.074;9.158;2023-08-24T00:30:54;39.04;35.36;43.81;;
61095;Laerm;20450;49.074;9.158;2023-08-24T00:33:21;38.44;34.69;42.59;;
61095;Laerm;20450;49.074;9.158;2023-08-24T00:35:49;38.46;35.36;41.89;;
61095;Laerm;20450;49.074;9.158;2023-08-24T00:38:16;38.32;35.04;40.89;;
61095;Laerm;20450;49.074;9.158;2023-08-24T00:40:43;38.61;34.69;41.46;;
61095;Laerm;20450;49.074;9.158;2023-08-24T00:43:12;39.12;35.04;43.90;;
61095;Laerm;20450;49.074;9.158;2023-08-24T00:45:40;38.53;35.04;42.19;;
61095;Laerm;20450;49.074;9.158;2023-08-24T00:48:07;38.74;35.04;44.97;;
61095;Laerm;20450;49.074;9.158;2023-08-24T00:50:38;39.96;34.31;69.03;;
61095;Laerm;20450;49.074;9.158;2023-08-24T00:53:08;38.81;35.36;41.89;;
61095;Laerm;20450;49.074;9.158;2023-08-24T00:55:35;38.44;35.66;42.53;;
61095;Laerm;20450;49.074;9.158;2023-08-24T00:58:03;38.37;34.69;40.89;;
61095;Laerm;20450;49.074;9.158;2023-08-24T01:00:32;38.78;35.04;46.28;;
61095;Laerm;20450;49.074;9.158;2023-08-24T01:03:00;38.34;34.69;40.80;;
61095;Laerm;20450;49.074;9.158;2023-08-24T01:05:30;38.46;35.36;41.06;;
61095;Laerm;20450;49.074;9.158;2023-08-24T01:07:57;39.38;35.36;45.66;;
61095;Laerm;20450;49.074;9.158;2023-08-24T01:10:36;39.05;35.36;44.27;;
61095;Laerm;20450;49.074;9.158;2023-08-24T01:13:09;39.28;35.36;49.59;;
61095;Laerm;20450;49.074;9.158;2023-08-24T01:15:47;38.81;35.36;41.46;;
61095;Laerm;20450;49.074;9.158;2023-08-24T01:18:17;38.84;35.36;41.61;;
61095;Laerm;20450;49.074;9.158;2023-08-24T01:20:49;39.01;35.66;44.23;;
61095;Laerm;20450;49.074;9.158;2023-08-24T01:23:33;38.88;35.04;43.90;;
61095;Laerm;20450;49.074;9.158;2023-08-24T01:26:14;38.38;35.04;40.62;;
61095;Laerm;20450;49.074;9.158;2023-08-24T01:28:45;38.68;35.36;41.68;;
61095;Laerm;20450;49.074;9.158;2023-08-24T01:31:13;38.56;34.69;43.86;;
61095;Laerm;20450;49.074;9.158;2023-08-24T01:33:41;39.32;35.66;44.58;;
61095;Laerm;20450;49.074;9.158;2023-08-24T01:36:09;38.42;34.69;40.98;;
61095;Laerm;20450;49.074;9.158;2023-08-24T01:38:38;38.94;35.04;42.71;;
61095;Laerm;20450;49.074;9.158;2023-08-24T01:41:14;38.56;34.69;41.14;;
61095;Laerm;20450;49.074;9.158;2023-08-24T01:43:49;38.35;35.04;41.53;;
61095;Laerm;20450;49.074;9.158;2023-08-24T01:46:22;38.65;35.36;43.34;;
61095;Laerm;20450;49.074;9.158;2023-08-24T01:48:53;38.26;35.04;40.71;;
61095;Laerm;20450;49.074;9.158;2023-08-24T01:51:24;38.33;35.01;41.06;;
61095;Laerm;20450;49.074;9.158;2023-08-24T01:53:52;39.01;34.31;48.75;;
61095;Laerm;20450;49.074;9.158;2023-08-24T01:56:23;38.53;34.69;42.71;;
61095;Laerm;20450;49.074;9.158;2023-08-24T01:58:52;38.53;35.04;41.46;;
61095;Laerm;20450;49.074;9.158;2023-08-24T02:01:21;38.49;34.69;43.19;;
61095;Laerm;20450;49.074;9.158;2023-08-24T02:03:49;38.50;34.69;41.06;;
61095;Laerm;20450;49.074;9.158;2023-08-24T02:06:16;38.42;34.69;42.35;;
61095;Laerm;20450;49.074;9.158;2023-08-24T02:08:43;38.65;34.69;41.61;;
61095;Laerm;20450;49.074;9.158;2023-08-24T02:11:10;38.63;34.69;44.58;;
61095;Laerm;20450;49.074;9.158;2023-08-24T02:13:40;38.41;34.69;41.89;;
61095;Laerm;20450;49.074;9.158;2023-08-24T02:16:08;38.75;35.04;42.13;;
61095;Laerm;20450;49.074;9.158;2023-08-24T02:18:36;38.65;35.59;41.06;;
61095;Laerm;20450;49.074;9.158;2023-08-24T02:21:08;38.42;35.31;42.82;;
61095;Laerm;20450;49.074;9.158;2023-08-24T02:23:35;38.67;35.36;41.30;;
61095;Laerm;20450;49.074;9.158;2023-08-24T02:26:01;39.31;35.36;42.59;;
61095;Laerm;20450;49.074;9.158;2023-08-24T02:28:29;38.78;35.66;41.30;;
61095;Laerm;20450;49.074;9.158;2023-08-24T02:31:02;39.05;35.36;43.81;;
61095;Laerm;20450;49.074;9.158;2023-08-24T02:33:30;38.78;35.66;42.09;;
61095;Laerm;20450;49.074;9.158;2023-08-24T02:35:57;39.09;35.36;42.59;;
61095;Laerm;20450;49.074;9.158;2023-08-24T02:38:24;39.78;34.69;45.30;;
61095;Laerm;20450;49.074;9.158;2023-08-24T02:41:00;39.61;35.66;45.48;;
61095;Laerm;20450;49.074;9.158;2023-08-24T02:43:29;39.24;34.69;43.86;;
61095;Laerm;20450;49.074;9.158;2023-08-24T02:46:01;39.35;35.66;46.05;;
61095;Laerm;20450;49.074;9.158;2023-08-24T02:48:29;38.98;35.04;42.16;;
61095;Laerm;20450;49.074;9.158;2023-08-24T02:50:57;39.09;35.66;42.65;;
61095;Laerm;20450;49.074;9.158;2023-08-24T02:53:24;39.68;35.04;43.99;;
61095;Laerm;20450;49.074;9.158;2023-08-24T02:55:51;40.09;36.91;43.94;;
61095;Laerm;20450;49.074;9.158;2023-08-24T02:58:18;39.90;36.20;47.50;;
61095;Laerm;20450;49.074;9.158;2023-08-24T03:00:45;39.12;35.94;42.82;;
61095;Laerm;20450;49.074;9.158;2023-08-24T03:03:14;39.37;35.94;42.65;;
61095;Laerm;20450;49.074;9.158;2023-08-24T03:05:52;40.33;35.36;47.48;;
61095;Laerm;20450;49.074;9.158;2023-08-24T03:08:20;39.61;36.45;42.35;;
61095;Laerm;20450;49.074;9.158;2023-08-24T03:10:47;40.91;37.17;44.54;;
61095;Laerm;20450;49.074;9.158;2023-08-24T03:13:15;40.17;35.66;43.19;;
61095;Laerm;20450;49.074;9.158;2023-08-24T03:15:43;40.32;35.66;44.27;;
61095;Laerm;20450;49.074;9.158;2023-08-24T03:18:12;39.41;36.45;43.09;;
61095;Laerm;20450;49.074;9.158;2023-08-24T03:20:41;40.01;35.94;45.94;;
61095;Laerm;20450;49.074;9.158;2023-08-24T03:23:08;39.81;35.94;42.59;;
61095;Laerm;20450;49.074;9.158;2023-08-24T03:25:36;40.36;35.94;44.01;;
61095;Laerm;20450;49.074;9.158;2023-08-24T03:28:05;39.83;36.20;42.93;;
61095;Laerm;20450;49.074;9.158;2023-08-24T03:30:33;41.23;37.12;46.18;;
61095;Laerm;20450;49.074;9.158;2023-08-24T03:33:00;39.99;36.20;42.29;;
61095;Laerm;20450;49.074;9.158;2023-08-24T03:35:29;41.54;37.70;53.30;;
61095;Laerm;20450;49.074;9.158;2023-08-24T03:37:57;41.35;37.32;46.15;;
61095;Laerm;20450;49.074;9.158;2023-08-24T03:40:25;41.16;37.32;65.13;;
61095;Laerm;20450;49.074;9.158;2023-08-24T03:42:53;40.66;37.32;44.23;;
61095;Laerm;20450;49.074;9.158;2023-08-24T03:45:20;40.89;37.88;44.69;;
61095;Laerm;20450;49.074;9.158;2023-08-24T03:47:49;40.61;37.12;46.35;;
61095;Laerm;20450;49.074;9.158;2023-08-24T03:50:17;40.72;37.12;45.04;;
61095;Laerm;20450;49.074;9.158;2023-08-24T03:52:44;40.45;36.69;44.62;;
61095;Laerm;20450;49.074;9.158;2023-08-24T03:55:12;40.95;37.12;47.54;;
61095;Laerm;20450;49.074;9.158;2023-08-24T03:57:39;40.96;37.32;44.90;;
61095;Laerm;20450;49.074;9.158;2023-08-24T04:00:07;41.23;36.69;46.73;;
61095;Laerm;20450;49.074;9.158;2023-08-24T04:02:40;40.23;36.91;43.58;;
61095;Laerm;20450;49.074;9.158;2023-08-24T04:05:08;40.09;36.45;46.50;;
61095;Laerm;20450;49.074;9.158;2023-08-24T04:07:35;40.36;35.94;43.54;;
61095;Laerm;20450;49.074;9.158;2023-08-24T04:10:03;40.78;37.12;51.84;;
61095;Laerm;20450;49.074;9.158;2023-08-24T04:12:31;40.94;37.52;44.94;;
61095;Laerm;20450;49.074;9.158;2023-08-24T04:14:58;40.99;36.91;46.89;;
61095;Laerm;20450;49.074;9.158;2023-08-24T04:17:25;40.62;37.35;47.48;;
61095;Laerm;20450;49.074;9.158;2023-08-24T04:19:53;40.77;37.12;44.51;;
61095;Laerm;20450;49.074;9.158;2023-08-24T04:22:21;41.43;37.70;49.07;;
61095;Laerm;20450;49.074;9.158;2023-08-24T04:24:49;41.53;38.21;45.04;;
61095;Laerm;20450;49.074;9.158;2023-08-24T04:27:16;41.19;38.67;43.49;;
61095;Laerm;20450;49.074;9.158;2023-08-24T04:29:45;41.18;38.21;44.31;;
61095;Laerm;20450;49.074;9.158;2023-08-24T04:32:12;44.07;38.81;58.88;;
61095;Laerm;20450;49.074;9.158;2023-08-24T04:34:39;41.90;38.95;47.52;;
61095;Laerm;20450;49.074;9.158;2023-08-24T04:37:06;41.75;38.95;49.34;;
61095;Laerm;20450;49.074;9.158;2023-08-24T04:39:34;41.99;38.67;47.95;;
61095;Laerm;20450;49.074;9.158;2023-08-24T04:42:01;41.49;38.52;49.46;;
61095;Laerm;20450;49.074;9.158;2023-08-24T04:44:29;42.61;38.95;50.84;;
61095;Laerm;20450;49.074;9.158;2023-08-24T04:46:58;42.37;38.37;61.10;;
61095;Laerm;20450;49.074;9.158;2023-08-24T04:49:25;42.52;38.95;52.92;;
61095;Laerm;20450;49.074;9.158;2023-08-24T04:51:52;41.71;38.52;48.29;;
61095;Laerm;20450;49.074;9.158;2023-08-24T04:54:19;44.12;39.46;49.56;;
61095;Laerm;20450;49.074;9.158;2023-08-24T04:56:46;48.48;42.09;60.90;;
61095;Laerm;20450;49.074;9.158;2023-08-24T04:59:14;43.25;37.32;61.20;;
61095;Laerm;20450;49.074;9.158;2023-08-24T05:01:40;41.32;38.21;51.01;;
61095;Laerm;20450;49.074;9.158;2023-08-24T05:04:09;43.15;39.21;50.07;;
61095;Laerm;20450;49.074;9.158;2023-08-24T05:06:39;41.43;38.21;49.24;;
61095;Laerm;20450;49.074;9.158;2023-08-24T05:09:06;40.99;37.52;44.83;;
61095;Laerm;20450;49.074;9.158;2023-08-24T05:11:33;41.23;37.88;46.28;;
61095;Laerm;20450;49.074;9.158;2023-08-24T05:14:00;41.71;37.88;51.83;;
61095;Laerm;20450;49.074;9.158;2023-08-24T05:16:27;41.63;38.21;47.70;;
61095;Laerm;20450;49.074;9.158;2023-08-24T05:18:54;42.09;38.21;53.92;;
61095;Laerm;20450;49.074;9.158;2023-08-24T05:21:25;42.80;38.21;52.84;;
61095;Laerm;20450;49.074;9.158;2023-08-24T05:23:56;42.87;39.70;52.45;;
61095;Laerm;20450;49.074;9.158;2023-08-24T05:26:24;43.26;38.67;54.44;;
61095;Laerm;20450;49.074;9.158;2023-08-24T05:28:52;42.72;39.34;55.38;;
61095;Laerm;20450;49.074;9.158;2023-08-24T05:31:19;42.94;38.74;59.98;;
61095;Laerm;20450;49.074;9.158;2023-08-24T05:33:48;41.77;38.67;56.52;;
61095;Laerm;20450;49.074;9.158;2023-08-24T05:36:16;42.28;38.95;53.38;;
61095;Laerm;20450;49.074;9.158;2023-08-24T05:38:45;42.30;39.21;51.50;;
61095;Laerm;20450;49.074;9.158;2023-08-24T05:41:26;42.46;37.88;60.06;;
61095;Laerm;20450;49.074;9.158;2023-08-24T05:43:53;42.61;38.81;59.16;;
61095;Laerm;20450;49.074;9.158;2023-08-24T05:46:20;42.13;38.95;55.39;;
61095;Laerm;20450;49.074;9.158;2023-08-24T05:48:48;42.07;38.95;49.83;;
61095;Laerm;20450;49.074;9.158;2023-08-24T05:51:16;42.50;38.52;57.30;;
61095;Laerm;20450;49.074;9.158;2023-08-24T05:53:44;42.09;39.08;50.00;;
61095;Laerm;20450;49.074;9.158;2023-08-24T05:56:11;41.75;38.67;49.63;;
61095;Laerm;20450;49.074;9.158;2023-08-24T05:58:42;42.66;38.95;48.70;;
61095;Laerm;20450;49.074;9.158;2023-08-24T06:01:09;44.68;41.22;61.18;;
61095;Laerm;20450;49.074;9.158;2023-08-24T06:03:38;42.56;39.46;51.62;;
61095;Laerm;20450;49.074;9.158;2023-08-24T06:06:05;42.33;39.21;46.15;;
61095;Laerm;20450;49.074;9.158;2023-08-24T06:08:34;43.44;39.08;52.85;;
61095;Laerm;20450;49.074;9.158;2023-08-24T06:11:03;44.09;38.67;67.03;;
61095;Laerm;20450;49.074;9.158;2023-08-24T06:13:34;42.23;38.05;51.34;;
61095;Laerm;20450;49.074;9.158;2023-08-24T06:16:05;41.66;38.52;57.68;;
61095;Laerm;20450;49.074;9.158;2023-08-24T06:18:36;42.30;38.37;55.88;;
61095;Laerm;20450;49.074;9.158;2023-08-24T06:21:04;42.48;38.52;53.25;;
61095;Laerm;20450;49.074;9.158;2023-08-24T06:23:32;42.44;38.81;51.93;;
61095;Laerm;20450;49.074;9.158;2023-08-24T06:26:05;41.76;38.52;49.78;;
61095;Laerm;20450;49.074;9.158;2023-08-24T06:28:32;42.27;38.67;46.78;;
61095;Laerm;20450;49.074;9.158;2023-08-24T06:31:00;41.52;38.21;45.20;;
61095;Laerm;20450;49.074;9.158;2023-08-24T06:33:33;41.69;38.21;48.96;;
61095;Laerm;20450;49.074;9.158;2023-08-24T06:36:05;41.99;38.81;46.80;;
61095;Laerm;20450;49.074;9.158;2023-08-24T06:38:33;41.71;38.52;47.54;;
61095;Laerm;20450;49.074;9.158;2023-08-24T06:41:00;43.15;40.98;46.50;;
61095;Laerm;20450;49.074;9.158;2023-08-24T06:43:30;42.37;39.34;49.08;;
61095;Laerm;20450;49.074;9.158;2023-08-24T06:45:57;42.17;38.95;45.57;;
61095;Laerm;20450;49.074;9.158;2023-08-24T06:48:24;42.14;38.95;45.91;;
61095;Laerm;20450;49.074;9.158;2023-08-24T06:50:53;41.47;37.70;44.19;;
61095;Laerm;20450;49.074;9.158;2023-08-24T06:53:20;42.32;38.67;47.34;;
61095;Laerm;20450;49.074;9.158;2023-08-24T06:55:54;41.57;37.32;46.30;;
61095;Laerm;20450;49.074;9.158;2023-08-24T06:58:21;41.09;38.05;47.42;;
61095;Laerm;20450;49.074;9.158;2023-08-24T07:00:51;41.63;38.52;47.90;;
61095;Laerm;20450;49.074;9.158;2023-08-24T07:03:21;41.82;38.67;59.55;;
61095;Laerm;20450;49.074;9.158;2023-08-24T07:05:51;41.85;38.21;50.03;;
61095;Laerm;20450;49.074;9.158;2023-08-24T07:08:20;43.27;38.37;65.90;;
61095;Laerm;20450;49.074;9.158;2023-08-24T07:10:48;42.86;38.37;64.73;;
61095;Laerm;20450;49.074;9.158;2023-08-24T07:13:15;42.04;39.21;51.12;;
61095;Laerm;20450;49.074;9.158;2023-08-24T07:15:43;42.56;40.13;51.27;;
61095;Laerm;20450;49.074;9.158;2023-08-24T07:18:11;42.55;39.21;51.79;;
61095;Laerm;20450;49.074;9.158;2023-08-24T07:20:39;42.47;38.37;53.73;;
61095;Laerm;20450;49.074;9.158;2023-08-24T07:23:06;46.58;38.52;55.59;;
61095;Laerm;20450;49.074;9.158;2023-08-24T07:25:33;52.22;47.22;57.73;;
61095;Laerm;20450;49.074;9.158;2023-08-24T07:28:01;55.09;40.03;61.31;;
61095;Laerm;20450;49.074;9.158;2023-08-24T07:30:31;56.46;48.08;62.27;;
61095;Laerm;20450;49.074;9.158;2023-08-24T07:33:03;51.99;39.21;61.81;;
61095;Laerm;20450;49.074;9.158;2023-08-24T07:35:39;47.57;39.21;56.20;;
61095;Laerm;20450;49.074;9.158;2023-08-24T07:38:06;43.76;40.23;52.22;;
61095;Laerm;20450;49.074;9.158;2023-08-24T07:40:34;45.55;39.92;53.76;;
61095;Laerm;20450;49.074;9.158;2023-08-24T07:43:07;46.34;39.70;54.54;;
61095;Laerm;20450;49.074;9.158;2023-08-24T07:45:38;45.35;39.58;53.00;;
61095;Laerm;20450;49.074;9.158;2023-08-24T07:48:09;46.48;40.23;54.71;;
61095;Laerm;20450;49.074;9.158;2023-08-24T07:50:41;45.49;39.58;54.44;;
61095;Laerm;20450;49.074;9.158;2023-08-24T07:53:08;46.37;40.43;58.05;;
61095;Laerm;20450;49.074;9.158;2023-08-24T07:55:36;45.45;39.92;57.58;;
61095;Laerm;20450;49.074;9.158;2023-08-24T07:58:06;45.38;38.67;53.57;;
61095;Laerm;20450;49.074;9.158;2023-08-24T08:00:34;46.08;40.62;55.09;;
61095;Laerm;20450;49.074;9.158;2023-08-24T08:03:03;45.49;39.58;52.26;;
61095;Laerm;20450;49.074;9.158;2023-08-24T08:05:33;48.11;41.14;63.28;;
61095;Laerm;20450;49.074;9.158;2023-08-24T08:08:04;44.49;39.58;58.77;;
61095;Laerm;20450;49.074;9.158;2023-08-24T08:10:32;49.73;40.03;58.51;;
61095;Laerm;20450;49.074;9.158;2023-08-24T08:12:59;52.63;48.91;58.50;;
61095;Laerm;20450;49.074;9.158;2023-08-24T08:15:26;48.77;39.92;59.09;;
61095;Laerm;20450;49.074;9.158;2023-08-24T08:17:53;46.30;40.62;55.11;;
61095;Laerm;20450;49.074;9.158;2023-08-24T08:20:21;46.08;40.98;52.95;;
61095;Laerm;20450;49.074;9.158;2023-08-24T08:22:48;45.49;41.14;51.86;;
61095;Laerm;20450;49.074;9.158;2023-08-24T08:25:17;43.60;39.70;55.48;;
61095;Laerm;20450;49.074;9.158;2023-08-24T08:27:45;42.32;38.67;48.28;;
61095;Laerm;20450;49.074;9.158;2023-08-24T08:30:13;43.02;39.92;57.59;;
61095;Laerm;20450;49.074;9.158;2023-08-24T08:32:43;42.61;39.21;49.72;;
61095;Laerm;20450;49.074;9.158;2023-08-24T08:35:10;42.03;39.34;49.82;;
61095;Laerm;20450;49.074;9.158;2023-08-24T08:37:39;42.56;39.46;52.81;;
61095;Laerm;20450;49.074;9.158;2023-08-24T08:40:10;42.96;39.92;65.47;;
61095;Laerm;20450;49.074;9.158;2023-08-24T08:42:41;42.05;39.21;46.78;;
61095;Laerm;20450;49.074;9.158;2023-08-24T08:45:10;43.31;39.70;62.26;;
61095;Laerm;20450;49.074;9.158;2023-08-24T08:47:38;42.32;38.67;56.01;;
61095;Laerm;20450;49.074;9.158;2023-08-24T08:50:06;43.16;39.34;50.51;;
61095;Laerm;20450;49.074;9.158;2023-08-24T08:52:34;43.61;39.08;50.37;;
61095;Laerm;20450;49.074;9.158;2023-08-24T08:55:02;44.29;41.14;54.77;;
61095;Laerm;20450;49.074;9.158;2023-08-24T08:57:30;43.86;40.43;63.63;;
61095;Laerm;20450;49.074;9.158;2023-08-24T09:00:02;42.94;38.95;45.80;;
61095;Laerm;20450;49.074;9.158;2023-08-24T09:02:32;43.34;39.08;52.88;;
61095;Laerm;20450;49.074;9.158;2023-08-24T09:05:01;43.65;39.34;50.73;;
61095;Laerm;20450;49.074;9.158;2023-08-24T09:07:29;44.15;42.29;56.44;;
61095;Laerm;20450;49.074;9.158;2023-08-24T09:09:56;44.28;40.03;56.62;;
61095;Laerm;20450;49.074;9.158;2023-08-24T09:12:32;43.39;39.08;49.39;;
61095;Laerm;20450;49.074;9.158;2023-08-24T09:15:00;44.48;41.68;53.79;;
61095;Laerm;20450;49.074;9.158;2023-08-24T09:17:30;43.50;38.52;52.91;;
61095;Laerm;20450;49.074;9.158;2023-08-24T09:19:59;43.36;39.92;49.49;;
61095;Laerm;20450;49.074;9.158;2023-08-24T09:22:35;43.94;40.03;50.34;;
61095;Laerm;20450;49.074;9.158;2023-08-24T09:25:03;43.90;40.33;50.08;;
61095;Laerm;20450;49.074;9.158;2023-08-24T09:27:32;48.19;40.71;63.20;;
61095;Laerm;20450;49.074;9.158;2023-08-24T09:30:05;44.06;39.34;54.11;;
61095;Laerm;20450;49.074;9.158;2023-08-24T09:32:33;43.64;40.23;49.73;;
61095;Laerm;20450;49.074;9.158;2023-08-24T09:35:09;43.10;39.08;55.41;;
61095;Laerm;20450;49.074;9.158;2023-08-24T09:37:37;43.64;40.43;50.55;;
61095;Laerm;20450;49.074;9.158;2023-08-24T09:40:07;43.56;40.33;51.64;;
61095;Laerm;20450;49.074;9.158;2023-08-24T09:42:39;43.26;39.92;51.47;;
61095;Laerm;20450;49.074;9.158;2023-08-24T09:45:12;42.45;39.58;52.31;;
61095;Laerm;20450;49.074;9.158;2023-08-24T09:47:45;42.98;39.58;53.77;;
61095;Laerm;20450;49.074;9.158;2023-08-24T09:50:12;43.64;39.70;49.82;;
61095;Laerm;20450;49.074;9.158;2023-08-24T09:52:43;43.37;40.03;53.61;;
61095;Laerm;20450;49.074;9.158;2023-08-24T09:55:15;44.43;40.03;51.87;;
61095;Laerm;20450;49.074;9.158;2023-08-24T09:57:51;45.04;40.33;51.68;;
61095;Laerm;20450;49.074;9.158;2023-08-24T10:00:24;44.95;39.81;54.98;;
61095;Laerm;20450;49.074;9.158;2023-08-24T10:02:52;44.23;39.81;53.20;;
61095;Laerm;20450;49.074;9.158;2023-08-24T10:05:26;43.12;39.21;54.78;;
61095;Laerm;20450;49.074;9.158;2023-08-24T10:07:58;42.92;38.67;51.42;;
61095;Laerm;20450;49.074;9.158;2023-08-24T10:10:27;42.38;38.81;48.20;;
61095;Laerm;20450;49.074;9.158;2023-08-24T10:12:59;43.12;39.08;59.72;;
61095;Laerm;20450;49.074;9.158;2023-08-24T10:15:34;42.18;39.08;51.91;;
61095;Laerm;20450;49.074;9.158;2023-08-24T10:18:05;43.36;39.21;55.37;;
61095;Laerm;20450;49.074;9.158;2023-08-24T10:20:34;42.69;39.46;47.61;;
61095;Laerm;20450;49.074;9.158;2023-08-24T10:23:03;42.32;38.52;50.09;;
61095;Laerm;20450;49.074;9.158;2023-08-24T10:25:32;44.41;39.21;57.51;;
61095;Laerm;20450;49.074;9.158;2023-08-24T10:28:01;42.65;38.37;56.99;;
61095;Laerm;20450;49.074;9.158;2023-08-24T10:30:32;43.18;39.70;51.15;;
61095;Laerm;20450;49.074;9.158;2023-08-24T10:33:05;43.05;39.34;52.70;;
61095;Laerm;20450;49.074;9.158;2023-08-24T10:35:34;43.59;38.32;63.45;;
61095;Laerm;20450;49.074;9.158;2023-08-24T10:38:03;42.33;37.52;54.77;;
61095;Laerm;20450;49.074;9.158;2023-08-24T10:40:32;42.83;40.03;52.20;;
61095;Laerm;20450;49.074;9.158;2023-08-24T10:43:03;44.19;39.92;58.07;;
61095;Laerm;20450;49.074;9.158;2023-08-24T10:46:01;42.76;38.81;55.31;;
61095;Laerm;20450;49.074;9.158;2023-08-24T10:48:31;41.45;38.37;51.88;;
61095;Laerm;20450;49.074;9.158;2023-08-24T10:51:19;42.41;38.52;52.43;;
61095;Laerm;20450;49.074;9.158;2023-08-24T10:53:53;43.30;39.46;50.26;;
61095;Laerm;20450;49.074;9.158;2023-08-24T10:56:29;44.31;40.53;53.38;;
61095;Laerm;20450;49.074;9.158;2023-08-24T10:59:11;42.44;38.52;52.56;;
61095;Laerm;20450;49.074;9.158;2023-08-24T11:01:41;44.35;39.46;61.73;;
61095;Laerm;20450;49.074;9.158;2023-08-24T11:04:11;44.27;40.33;55.35;;
61095;Laerm;20450;49.074;9.158;2023-08-24T11:06:55;45.02;42.53;49.08;;
61095;Laerm;20450;49.074;9.158;2023-08-24T11:09:23;44.70;41.30;55.43;;
61095;Laerm;20450;49.074;9.158;2023-08-24T11:11:58;42.88;39.46;49.72;;
61095;Laerm;20450;49.074;9.158;2023-08-24T11:14:26;43.01;39.46;58.73;;
61095;Laerm;20450;49.074;9.158;2023-08-24T11:17:00;46.00;40.23;61.44;;
61095;Laerm;20450;49.074;9.158;2023-08-24T11:19:28;44.06;39.46;57.52;;
61095;Laerm;20450;49.074;9.158;2023-08-24T11:21:55;44.45;38.95;65.18;;
61095;Laerm;20450;49.074;9.158;2023-08-24T11:24:24;43.24;39.08;54.19;;
61095;Laerm;20450;49.074;9.158;2023-08-24T11:26:51;43.50;38.67;57.13;;
61095;Laerm;20450;49.074;9.158;2023-08-24T11:29:18;43.90;40.23;57.86;;
61095;Laerm;20450;49.074;9.158;2023-08-24T11:31:47;42.67;39.08;50.33;;
61095;Laerm;20450;49.074;9.158;2023-08-24T11:34:16;42.14;38.37;51.07;;
61095;Laerm;20450;49.074;9.158;2023-08-24T11:36:45;44.15;39.58;58.67;;
61095;Laerm;20450;49.074;9.158;2023-08-24T11:39:17;43.10;39.21;49.21;;
61095;Laerm;20450;49.074;9.158;2023-08-24T11:41:45;43.57;39.81;52.19;;
61095;Laerm;20450;49.074;9.158;2023-08-24T11:44:13;43.34;39.34;54.60;;
61095;Laerm;20450;49.074;9.158;2023-08-24T11:46:57;43.12;39.58;51.55;;
61095;Laerm;20450;49.074;9.158;2023-08-24T11:49:41;42.35;38.95;51.18;;
61095;Laerm;20450;49.074;9.158;2023-08-24T11:52:09;44.08;39.34;58.17;;
61095;Laerm;20450;49.074;9.158;2023-08-24T11:54:36;47.87;39.70;65.28;;
61095;Laerm;20450;49.074;9.158;2023-08-24T11:57:08;42.42;39.58;45.91;;
61095;Laerm;20450;49.074;9.158;2023-08-24T11:59:43;41.77;38.37;45.45;;
61095;Laerm;20450;49.074;9.158;2023-08-24T12:02:11;42.24;39.08;47.81;;
61095;Laerm;20450;49.074;9.158;2023-08-24T12:04:38;43.03;39.81;49.04;;
61095;Laerm;20450;49.074;9.158;2023-08-24T12:07:10;42.18;38.81;49.40;;
61095;Laerm;20450;49.074;9.158;2023-08-24T12:09:41;43.02;40.03;52.17;;
61095;Laerm;20450;49.074;9.158;2023-08-24T12:12:15;42.47;39.34;51.42;;
61095;Laerm;20450;49.074;9.158;2023-08-24T12:14:44;43.25;40.13;57.24;;
61095;Laerm;20450;49.074;9.158;2023-08-24T12:17:13;42.79;38.81;50.65;;
61095;Laerm;20450;49.074;9.158;2023-08-24T12:19:41;43.11;38.81;52.05;;
61095;Laerm;20450;49.074;9.158;2023-08-24T12:22:13;42.26;38.67;49.24;;
61095;Laerm;20450;49.074;9.158;2023-08-24T12:24:43;42.45;39.21;48.13;;
61095;Laerm;20450;49.074;9.158;2023-08-24T12:27:18;42.88;39.08;51.37;;
61095;Laerm;20450;49.074;9.158;2023-08-24T12:29:48;44.10;40.33;55.70;;
61095;Laerm;20450;49.074;9.158;2023-08-24T12:32:17;47.90;39.21;64.22;;
61095;Laerm;20450;49.074;9.158;2023-08-24T12:34:44;42.39;38.87;46.50;;
61095;Laerm;20450;49.074;9.158;2023-08-24T12:37:13;45.32;40.13;59.05;;
61095;Laerm;20450;49.074;9.158;2023-08-24T12:39:40;42.47;39.92;54.59;;
61095;Laerm;20450;49.074;9.158;2023-08-24T12:42:08;43.14;39.46;51.00;;
61095;Laerm;20450;49.074;9.158;2023-08-24T12:44:35;42.99;39.92;53.30;;
61095;Laerm;20450;49.074;9.158;2023-08-24T12:47:03;43.13;39.92;50.64;;
61095;Laerm;20450;49.074;9.158;2023-08-24T12:49:30;43.49;40.13;51.26;;
61095;Laerm;20450;49.074;9.158;2023-08-24T12:51:57;43.00;39.21;50.75;;
61095;Laerm;20450;49.074;9.158;2023-08-24T12:54:28;43.66;39.34;52.02;;
61095;Laerm;20450;49.074;9.158;2023-08-24T12:57:01;42.93;39.08;50.43;;
61095;Laerm;20450;49.074;9.158;2023-08-24T12:59:33;42.41;38.52;46.15;;
61095;Laerm;20450;49.074;9.158;2023-08-24T13:02:01;43.36;39.46;50.16;;
61095;Laerm;20450;49.074;9.158;2023-08-24T13:04:29;43.77;40.33;52.97;;
61095;Laerm;20450;49.074;9.158;2023-08-24T13:06:57;43.45;41.14;50.37;;
61095;Laerm;20450;49.074;9.158;2023-08-24T13:09:26;42.96;39.99;50.18;;
61095;Laerm;20450;49.074;9.158;2023-08-24T13:11:54;42.89;39.23;51.61;;
61095;Laerm;20450;49.074;9.158;2023-08-24T13:14:21;43.38;40.13;51.44;;
61095;Laerm;20450;49.074;9.158;2023-08-24T13:16:48;44.38;41.75;52.79;;
61095;Laerm;20450;49.074;9.158;2023-08-24T13:19:17;43.75;40.13;50.15;;
61095;Laerm;20450;49.074;9.158;2023-08-24T13:21:44;42.93;39.81;57.08;;
61095;Laerm;20450;49.074;9.158;2023-08-24T13:24:11;42.95;39.58;52.91;;
61095;Laerm;20450;49.074;9.158;2023-08-24T13:26:40;43.08;39.81;51.94;;
61095;Laerm;20450;49.074;9.158;2023-08-24T13:29:09;42.91;39.46;55.71;;
61095;Laerm;20450;49.074;9.158;2023-08-24T13:31:36;42.61;40.23;49.02;;
61095;Laerm;20450;49.074;9.158;2023-08-24T13:34:05;43.35;40.23;53.74;;
61095;Laerm;20450;49.074;9.158;2023-08-24T13:36:32;42.93;39.34;58.66;;
61095;Laerm;20450;49.074;9.158;2023-08-24T13:38:59;43.22;39.21;51.89;;
61095;Laerm;20450;49.074;9.158;2023-08-24T13:41:26;43.20;39.34;49.66;;
61095;Laerm;20450;49.074;9.158;2023-08-24T13:43:55;43.35;39.46;57.17;;
61095;Laerm;20450;49.074;9.158;2023-08-24T13:46:22;43.39;40.33;49.91;;
61095;Laerm;20450;49.074;9.158;2023-08-24T13:48:50;43.44;39.70;48.87;;
61095;Laerm;20450;49.074;9.158;2023-08-24T13:51:18;42.35;39.70;47.93;;
61095;Laerm;20450;49.074;9.158;2023-08-24T13:53:45;43.41;40.43;49.65;;
61095;Laerm;20450;49.074;9.158;2023-08-24T13:56:12;43.56;39.70;61.22;;